Time;durP1;ratioP1;P1;durP2;ratioP2;P2;SDS_P1;SDS_P2;PMS_P1;PMS_P2;Temp;Humidity;BMP_temperature;BMP_pressure;BME280_temperature;BME280_humidity;BME280_pressure;Samples;Min_cycle;Max_cycle;Signal;HPM_P1;HPM_P2
2022/05/27 00:01:21;;;;;;;11.05;5.90;;;;;;;12.20;99.90;101013.59;5059774;28;20036;-83
2022/05/27 00:03:47;;;;;;;6.15;5.32;;;;;;;12.20;100.00;100995.28;5059607;28;20016;-83
2022/05/27 00:06:13;;;;;;;7.28;5.95;;;;;;;12.19;99.70;100990.97;5059587;28;20164;-83
2022/05/27 00:08:39;;;;;;;9.63;6.00;;;;;;;12.19;100.00;100990.97;5059599;28;20067;-83
2022/05/27 00:11:05;;;;;;;9.45;5.35;;;;;;;12.19;100.00;100993.56;5059459;28;20533;-84
2022/05/27 00:13:30;;;;;;;7.32;5.28;;;;;;;12.18;99.89;100979.59;5059552;28;20050;-84
2022/05/27 00:15:56;;;;;;;7.72;5.85;;;;;;;12.17;100.00;100969.16;5076462;28;20465;-84
2022/05/27 00:18:21;;;;;;;7.50;5.63;;;;;;;12.15;99.85;100982.28;5059294;28;20024;-84
2022/05/27 00:20:47;;;;;;;6.45;5.55;;;;;;;12.13;99.49;100980.56;5059191;28;20442;-84
2022/05/27 00:23:14;;;;;;;12.13;6.35;;;;;;;12.13;99.81;100972.72;5058758;28;20082;-84
2022/05/27 00:25:39;;;;;;;8.80;6.05;;;;;;;12.12;100.00;100979.72;5059114;28;20032;-84
2022/05/27 00:28:05;;;;;;;6.00;4.95;;;;;;;12.13;100.00;100986.69;5058717;28;20023;-84
2022/05/27 00:30:30;;;;;;;7.82;6.25;;;;;;;12.10;100.00;100988.50;5075834;28;20020;-84
2022/05/27 00:32:56;;;;;;;6.68;6.07;;;;;;;12.11;100.00;100982.38;5058985;28;20462;-84
2022/05/27 00:35:22;;;;;;;11.65;6.05;;;;;;;12.13;100.00;100991.06;5059201;28;20023;-85
2022/05/27 00:37:47;;;;;;;9.05;6.13;;;;;;;12.15;100.00;100973.56;5058278;28;20150;-84
2022/05/27 00:40:13;;;;;;;8.88;6.20;;;;;;;12.17;100.00;100982.25;5058465;28;20047;-84
2022/05/27 00:42:40;;;;;;;13.05;6.60;;;;;;;12.18;100.00;100976.13;5059340;28;20028;-83
2022/05/27 00:45:05;;;;;;;6.35;5.85;;;;;;;12.16;100.00;100977.91;5059218;28;20030;-84
2022/05/27 00:47:35;;;;;;;7.55;6.35;;;;;;;12.20;100.00;100976.94;5058851;28;20115;-84
2022/05/27 00:50:04;;;;;;;9.05;6.15;;;;;;;12.21;100.00;100983.91;5058855;28;20019;-84
2022/05/27 00:52:32;;;;;;;12.02;6.40;;;;;;;12.20;100.00;100994.44;5058735;28;20454;-84
2022/05/27 00:55:00;;;;;;;7.80;5.88;;;;;;;12.22;100.00;100977.78;5058883;28;20047;-83
2022/05/27 00:57:33;;;;;;;13.93;6.47;;;;;;;12.18;99.94;100983.97;5058801;28;20028;-84
2022/05/27 01:00:09;;;;;;;6.53;5.88;;;;;;;12.21;100.00;100977.81;5059041;28;20096;-84
2022/05/27 01:02:35;;;;;;;8.45;5.85;;;;;;;12.20;100.00;100983.94;5060152;28;20032;-84
2022/05/27 01:05:03;;;;;;;8.10;6.03;;;;;;;12.23;100.00;100983.88;5059299;28;20031;-84
2022/05/27 01:07:29;;;;;;;7.65;5.65;;;;;;;12.21;100.00;100994.41;5059364;28;20409;-84
2022/05/27 01:09:54;;;;;;;8.95;6.50;;;;;;;12.20;100.00;100983.94;5059723;28;20020;-84
2022/05/27 01:12:41;;;;;;;10.38;6.53;;;;;;;12.20;100.00;100997.91;5059823;28;20027;-84
2022/05/27 01:15:16;;;;;;;11.20;6.00;;;;;;;12.24;100.00;100988.25;5059532;28;20059;-84
2022/05/27 01:18:04;;;;;;;10.75;6.18;;;;;;;12.23;100.00;100987.38;5076261;28;20032;-84
2022/05/27 01:20:45;;;;;;;11.57;5.50;;;;;;;12.24;100.00;100989.09;5065953;28;20028;-84
2022/05/27 01:23:37;;;;;;;6.97;5.20;;;;;;;12.23;100.00;100987.38;5075960;28;20453;-84
2022/05/27 01:26:26;;;;;;;6.50;5.40;;;;;;;12.25;100.00;100988.22;5053066;28;20505;-84
2022/05/27 01:29:05;;;;;;;7.45;4.80;;;;;;;12.25;99.74;100990.81;5059419;28;20547;-84
2022/05/27 01:31:53;;;;;;;10.60;4.57;;;;;;;12.23;100.00;100986.50;5059685;28;20031;-84
2022/05/27 01:34:31;;;;;;;10.40;4.18;;;;;;;12.22;100.00;100990.88;5062585;28;20020;-84
2022/05/27 01:37:20;;;;;;;8.98;3.92;;;;;;;12.20;99.71;100997.03;5098572;28;20024;-83
2022/05/27 01:39:54;;;;;;;6.18;3.50;;;;;;;12.23;99.47;100992.63;5080771;28;20043;-83
2022/05/27 01:42:35;;;;;;;8.95;3.42;;;;;;;12.23;99.63;100994.38;5064263;28;20077;-84
2022/05/27 01:45:15;;;;;;;8.65;3.40;;;;;;;12.18;99.65;100989.22;5098645;28;20102;-84
2022/05/27 01:47:52;;;;;;;4.45;2.55;;;;;;;12.17;99.35;100992.72;5080630;28;20031;-84
2022/05/27 01:50:33;;;;;;;3.72;2.60;;;;;;;12.14;98.75;100998.03;5084226;23;20564;-85
2022/05/27 01:52:59;;;;;;;9.15;2.65;;;;;;;12.12;99.43;100973.59;5098363;28;20104;-86
2022/05/27 01:55:36;;;;;;;5.38;2.45;;;;;;;12.11;99.66;100978.00;5098017;28;20484;-86
2022/05/27 01:58:07;;;;;;;6.80;2.35;;;;;;;12.09;99.69;100989.38;5094259;28;20034;-85
2022/05/27 02:00:34;;;;;;;11.38;2.75;;;;;;;12.06;99.59;100992.06;5094519;28;20024;-85
2022/05/27 02:03:05;;;;;;;7.68;2.55;;;;;;;12.02;98.80;100980.75;5094434;28;20107;-86
2022/05/27 02:05:40;;;;;;;6.05;2.58;;;;;;;11.99;99.32;101007.00;5094428;28;20057;-85
2022/05/27 02:08:13;;;;;;;3.78;2.17;;;;;;;11.98;98.92;101007.88;5094374;28;20117;-86
2022/05/27 02:10:50;;;;;;;6.50;2.42;;;;;;;11.96;98.77;101004.44;5094215;28;20023;-86
2022/05/27 02:13:19;;;;;;;6.75;2.10;;;;;;;11.94;98.10;100996.63;5095408;28;20055;-86
2022/05/27 02:15:46;;;;;;;4.63;1.88;;;;;;;11.93;98.27;101004.44;5094278;28;20027;-85
2022/05/27 02:18:22;;;;;;;4.82;2.05;;;;;;;11.89;98.31;101002.78;5094032;28;20108;-85
2022/05/27 02:20:52;;;;;;;8.77;2.35;;;;;;;11.87;98.57;101004.56;5094074;28;20028;-86
2022/05/27 02:23:38;;;;;;;7.70;2.38;;;;;;;11.81;98.26;101000.31;5094122;28;20028;-85
2022/05/27 02:26:07;;;;;;;6.18;1.58;;;;;;;11.78;97.66;101008.19;5094115;28;20044;-85
2022/05/27 02:28:36;;;;;;;9.55;2.10;;;;;;;11.78;97.90;101005.56;5093845;28;20046;-86
2022/05/27 02:31:23;;;;;;;8.40;2.15;;;;;;;11.76;98.05;101018.69;5094128;28;20047;-86
2022/05/27 02:37:10;;;;;;;7.95;1.92;;;;;;;11.69;98.36;101027.53;5094218;28;20092;-86
2022/05/27 02:39:36;;;;;;;10.70;2.42;;;;;;;11.65;97.67;101020.59;5093110;28;20036;-86
2022/05/27 02:42:10;;;;;;;9.30;2.15;;;;;;;11.61;97.11;101011.94;5093593;28;20055;-86
2022/05/27 02:44:48;;;;;;;5.90;2.20;;;;;;;11.57;97.60;101012.88;5092130;28;20401;-86
2022/05/27 02:47:23;;;;;;;7.55;2.08;;;;;;;11.54;96.50;101010.31;5093548;28;20489;-86
2022/05/27 02:50:02;;;;;;;7.25;1.95;;;;;;;11.52;96.58;101012.09;5095537;28;20094;-86
2022/05/27 02:52:52;;;;;;;9.13;1.85;;;;;;;11.47;94.79;101016.53;5096674;28;20077;-86
2022/05/27 02:55:25;;;;;;;8.80;2.13;;;;;;;11.42;94.90;101015.72;5079663;28;20058;-86
2022/05/27 02:57:52;;;;;;;12.63;2.22;;;;;;;11.39;95.54;101013.16;5079754;28;20034;-84
2022/05/27 03:00:21;;;;;;;10.15;2.08;;;;;;;11.33;95.33;101014.97;5096590;28;20503;-86
2022/05/27 03:02:47;;;;;;;5.97;1.80;;;;;;;11.32;95.70;101018.47;5079758;28;20020;-86
2022/05/27 03:05:15;;;;;;;6.13;1.85;;;;;;;11.28;94.92;101015.94;5079739;28;20031;-85
2022/05/27 03:08:07;;;;;;;11.48;2.10;;;;;;;11.23;95.65;101026.44;5096463;28;20455;-86
2022/05/27 03:10:54;;;;;;;6.72;1.90;;;;;;;11.16;94.76;101015.19;5096322;28;20564;-87
2022/05/27 03:14:01;;;;;;;9.35;1.60;;;;;;;11.15;95.09;101015.22;5113415;28;20495;-85
2022/05/27 03:16:49;;;;;;;7.97;2.10;;;;;;;11.16;94.04;101016.94;5015237;28;20029;-85
2022/05/27 03:19:44;;;;;;;10.18;1.88;;;;;;;11.11;94.02;101019.63;5078198;28;20083;-85
2022/05/27 03:22:30;;;;;;;8.43;2.20;;;;;;;11.09;94.45;101016.16;5079148;28;20465;-86
2022/05/27 03:25:08;;;;;;;9.43;1.85;;;;;;;11.11;94.36;101016.13;5113228;28;20024;-86
2022/05/27 03:27:42;;;;;;;5.97;1.83;;;;;;;11.08;94.56;101035.34;5096170;28;20024;-86
2022/05/27 03:31:00;;;;;;;11.18;1.85;;;;;;;11.12;93.46;101030.94;5079376;28;20019;-86
2022/05/27 03:33:44;;;;;;;4.80;1.58;;;;;;;11.11;93.70;101035.31;5045767;28;20032;-86
2022/05/27 03:36:16;;;;;;;8.60;1.90;;;;;;;11.13;93.76;101032.69;5097674;28;20028;-85
2022/05/27 03:39:02;;;;;;;5.63;1.77;;;;;;;11.11;94.17;101029.22;5080324;28;20051;-85
2022/05/27 03:41:36;;;;;;;11.00;1.77;;;;;;;11.11;91.63;101044.91;5096850;28;20392;-86
2022/05/27 03:44:02;;;;;;;8.00;2.10;;;;;;;11.16;88.86;101043.09;5097964;28;20019;-85
2022/05/27 03:46:37;;;;;;;4.55;1.95;;;;;;;11.11;91.22;101045.78;5081326;28;20027;-87
2022/05/27 03:49:03;;;;;;;;;;;;;;;11.10;91.12;101051.03;5081092;28;20034;-85
2022/05/27 03:51:31;;;;;;;7.05;1.40;;;;;;;11.10;90.54;101057.13;5079758;28;20292;-85
2022/05/27 03:54:03;;;;;;;4.68;1.58;;;;;;;11.08;89.51;101052.78;5080357;28;20024;-85
2022/05/27 03:56:32;;;;;;;4.22;1.77;;;;;;;11.09;90.13;101041.44;5079713;28;20023;-87
2022/05/27 03:58:59;;;;;;;5.30;1.58;;;;;;;11.08;90.65;101045.78;5079946;28;20024;-85
2022/05/27 04:01:26;;;;;;;10.20;2.13;;;;;;;11.07;91.14;101051.94;5080658;28;20714;-85
2022/05/27 04:03:53;;;;;;;6.75;1.83;;;;;;;11.06;91.43;101049.34;5080208;28;20026;-85
2022/05/27 04:06:18;;;;;;;6.10;1.63;;;;;;;11.08;91.18;101051.03;5080161;28;20168;-85
2022/05/27 04:08:44;;;;;;;4.55;1.70;;;;;;;11.08;90.49;101039.72;5079883;28;20061;-85
2022/05/27 04:11:09;;;;;;;4.57;1.60;;;;;;;11.08;89.61;101043.19;5079715;28;20020;-88
2022/05/27 04:13:35;;;;;;;4.45;1.40;;;;;;;11.11;87.69;101040.56;5095808;28;20023;-85
2022/05/27 04:16:00;;;;;;;5.05;1.70;;;;;;;11.09;90.57;101047.53;5078774;28;20023;-84
2022/05/27 04:18:26;;;;;;;5.07;1.60;;;;;;;11.09;90.18;101049.28;5095758;28;20457;-84
2022/05/27 04:20:51;;;;;;;7.28;1.60;;;;;;;11.07;88.28;101048.44;5096113;28;20110;-84
2022/05/27 04:23:16;;;;;;;6.15;1.80;;;;;;;11.04;88.81;101051.09;5096356;28;20104;-85
2022/05/27 04:25:46;;;;;;;6.88;1.77;;;;;;;11.02;89.50;101055.50;5078552;28;20028;-84
2022/05/27 04:28:12;;;;;;;9.05;1.98;;;;;;;11.01;87.46;101051.16;5080150;28;20038;-84
2022/05/27 04:30:37;;;;;;;9.50;1.80;;;;;;;10.98;88.51;101055.50;5079333;28;20015;-85
2022/05/27 04:33:02;;;;;;;6.93;1.85;;;;;;;10.98;87.11;101052.03;5079627;28;20059;-85
2022/05/27 04:35:28;;;;;;;4.35;1.50;;;;;;;10.97;88.44;101048.53;5096874;28;20019;-84
2022/05/27 04:37:53;;;;;;;3.47;1.30;;;;;;;10.95;85.97;101047.72;5096361;28;20027;-84
2022/05/27 04:40:18;;;;;;;6.72;1.60;;;;;;;10.92;86.80;101050.38;5079697;28;20028;-85
2022/05/27 04:42:44;;;;;;;6.07;1.30;;;;;;;10.89;87.69;101054.75;5096043;28;20034;-84
2022/05/27 04:45:10;;;;;;;6.47;1.70;;;;;;;10.90;86.10;101046.03;5094990;28;20077;-85
2022/05/27 04:47:37;;;;;;;8.25;1.40;;;;;;;10.88;85.00;101043.44;5077769;28;20028;-86
2022/05/27 04:50:04;;;;;;;9.75;1.88;;;;;;;10.85;86.57;101043.47;5077522;28;20031;-87
2022/05/27 04:52:31;;;;;;;6.45;1.45;;;;;;;10.85;86.85;101051.31;5077922;28;20477;-86
2022/05/27 04:54:59;;;;;;;5.88;1.20;;;;;;;10.82;87.80;101061.81;5077600;28;20122;-86
2022/05/27 04:57:30;;;;;;;4.72;1.40;;;;;;;10.82;86.42;101056.56;5077773;28;20484;-86
2022/05/27 04:59:55;;;;;;;4.50;1.85;;;;;;;10.82;84.19;101059.19;5077820;28;20119;-87
2022/05/27 05:02:21;;;;;;;3.47;1.38;;;;;;;10.81;85.47;101047.88;5094565;28;20019;-86
2022/05/27 05:04:48;;;;;;;6.10;1.30;;;;;;;10.84;84.80;101057.44;5077419;28;20084;-87
2022/05/27 05:07:13;;;;;;;5.68;1.48;;;;;;;10.81;86.46;101055.72;5090894;27;20046;-86
2022/05/27 05:09:41;;;;;;;6.60;1.35;;;;;;;10.82;86.38;101064.41;5098033;28;20027;-86
2022/05/27 05:12:07;;;;;;;3.13;1.50;;;;;;;10.83;84.27;101063.53;5114919;28;20504;-87
2022/05/27 05:14:32;;;;;;;5.95;1.70;;;;;;;10.85;84.93;101059.16;5114812;28;20023;-87
2022/05/27 05:16:58;;;;;;;7.70;1.60;;;;;;;10.81;83.36;101063.56;5114847;28;20023;-87
2022/05/27 05:19:23;;;;;;;4.72;1.17;;;;;;;10.82;81.30;101053.97;5114785;28;20384;-86
2022/05/27 05:21:49;;;;;;;9.88;1.90;;;;;;;10.79;81.54;101052.25;5097948;28;20384;-86
2022/05/27 05:24:14;;;;;;;3.60;1.02;;;;;;;10.79;81.69;101051.41;5097913;28;20480;-86
2022/05/27 05:26:40;;;;;;;5.95;1.40;;;;;;;10.77;82.69;101056.63;5097820;28;20387;-86
2022/05/27 05:29:06;;;;;;;5.78;1.40;;;;;;;10.79;82.16;101054.84;5097777;28;20027;-87
2022/05/27 05:31:32;;;;;;;3.78;1.80;;;;;;;10.81;83.37;101054.84;5114215;28;20449;-87
2022/05/27 05:33:59;;;;;;;4.72;1.90;;;;;;;10.81;83.76;101058.34;5114507;28;20019;-89
2022/05/27 05:36:26;;;;;;;7.32;1.40;;;;;;;10.85;85.29;101055.69;5097845;28;20034;-87
2022/05/27 05:38:51;;;;;;;4.45;1.10;;;;;;;10.87;80.75;101054.78;5114524;28;20114;-87
2022/05/27 05:41:37;;;;;;;4.35;1.40;;;;;;;10.88;81.57;101064.34;5097651;28;20448;-87
2022/05/27 05:44:04;;;;;;;7.15;1.83;;;;;;;10.92;79.55;101058.22;5114913;28;20023;-87
2022/05/27 05:46:32;;;;;;;6.40;1.40;;;;;;;10.99;82.52;101062.47;5114414;28;20023;-87
2022/05/27 05:48:57;;;;;;;4.13;1.17;;;;;;;11.04;82.23;101065.03;5114758;28;20039;-87
2022/05/27 05:51:23;;;;;;;3.25;1.10;;;;;;;11.05;80.94;101068.53;5114332;28;20106;-86
2022/05/27 05:53:48;;;;;;;5.18;1.42;;;;;;;11.07;82.09;101069.34;5097612;28;20464;-86
2022/05/27 05:56:13;;;;;;;4.63;1.20;;;;;;;11.08;81.13;101063.25;5114485;28;20023;-86
2022/05/27 05:58:39;;;;;;;6.07;1.30;;;;;;;11.10;80.18;101088.50;5097735;28;20023;-86
2022/05/27 06:01:05;;;;;;;7.85;1.20;;;;;;;11.13;78.19;101084.97;5114291;28;20042;-89
2022/05/27 06:03:30;;;;;;;6.40;1.45;;;;;;;11.10;79.46;101069.34;5114145;28;20410;-87
2022/05/27 06:05:56;;;;;;;3.80;1.40;;;;;;;11.10;78.75;101074.56;5097105;28;20034;-91
2022/05/27 06:08:21;;;;;;;4.88;1.38;;;;;;;11.08;79.09;101084.16;5097334;28;20541;-88
2022/05/27 06:10:47;;;;;;;8.95;1.63;;;;;;;11.12;77.29;101089.31;5114844;28;20027;-89
2022/05/27 06:13:13;;;;;;;5.70;1.13;;;;;;;11.13;79.44;101066.69;5114205;28;20024;-88
2022/05/27 06:15:38;;;;;;;9.75;1.50;;;;;;;11.13;79.72;101079.75;5114293;28;20106;-87
2022/05/27 06:18:05;;;;;;;8.35;1.33;;;;;;;11.14;78.24;101078.88;5114278;28;20019;-88
2022/05/27 06:20:31;;;;;;;4.60;1.45;;;;;;;11.18;77.91;101083.19;5115827;27;20023;-89
2022/05/27 06:22:57;;;;;;;7.10;1.58;;;;;;;11.22;77.83;101079.63;5118028;27;20030;-88
2022/05/27 06:25:23;;;;;;;4.28;1.38;;;;;;;11.26;80.13;101085.66;5100858;27;20027;-87
2022/05/27 06:27:48;;;;;;;5.75;1.60;;;;;;;11.28;78.00;101084.78;5117851;27;20022;-87
2022/05/27 06:35:43;;;;;;;6.40;1.50;;;;;;;11.36;77.67;101075.94;5120571;27;20100;-88
2022/05/27 06:38:08;;;;;;;6.13;1.65;;;;;;;11.41;75.42;101074.16;5117511;27;20027;-87
2022/05/27 06:40:37;;;;;;;5.03;1.27;;;;;;;11.43;77.83;101072.38;5100544;27;20072;-86
2022/05/27 06:43:03;;;;;;;6.20;1.40;;;;;;;11.46;79.33;101073.19;5100743;27;20400;-89
2022/05/27 06:45:28;;;;;;;6.13;1.73;;;;;;;11.54;74.60;101064.41;5117708;27;20023;-87
2022/05/27 06:47:53;;;;;;;8.55;1.65;;;;;;;11.57;73.89;101075.66;5100573;27;20019;-87
2022/05/27 06:50:19;;;;;;;9.90;1.42;;;;;;;11.53;75.11;101073.97;5116155;27;20023;-88
2022/05/27 06:52:45;;;;;;;3.90;1.25;;;;;;;11.57;73.24;101059.97;5117355;27;20027;-84
2022/05/27 06:55:13;;;;;;;6.90;1.55;;;;;;;11.63;73.20;101059.00;5117222;27;20015;-85
2022/05/27 06:57:39;;;;;;;10.30;2.65;;;;;;;11.65;73.68;101058.09;5117055;27;20446;-85
2022/05/27 07:00:08;;;;;;;6.55;1.52;;;;;;;11.66;73.19;101069.44;5116938;27;20027;-86
2022/05/27 07:02:34;;;;;;;4.13;1.25;;;;;;;11.69;71.05;101081.63;5117906;27;20400;-84
2022/05/27 07:04:59;;;;;;;9.02;1.45;;;;;;;11.71;69.81;101071.97;5117579;27;20019;-85
2022/05/27 07:07:28;;;;;;;6.15;1.23;;;;;;;11.70;68.56;101062.41;5100096;27;20396;-86
2022/05/27 07:09:54;;;;;;;3.70;0.98;;;;;;;11.72;67.48;101071.94;5116964;27;20091;-83
2022/05/27 07:12:19;;;;;;;4.93;1.08;;;;;;;11.73;68.26;101072.84;5099718;27;20019;-85
2022/05/27 07:14:45;;;;;;;8.05;1.58;;;;;;;11.69;69.41;101064.16;5116846;27;20163;-88
2022/05/27 07:17:10;;;;;;;7.55;1.38;;;;;;;11.67;69.31;101076.41;5099944;27;20387;-85
2022/05/27 07:19:37;;;;;;;5.45;1.40;;;;;;;11.71;67.79;101061.50;5116841;27;20027;-85
2022/05/27 07:22:05;;;;;;;6.18;1.40;;;;;;;11.69;67.67;101063.31;5116459;27;20080;-85
2022/05/27 07:24:31;;;;;;;6.47;1.50;;;;;;;11.73;67.07;101081.53;5116780;27;20396;-83
2022/05/27 07:26:56;;;;;;;9.45;1.88;;;;;;;11.75;66.04;101063.19;5099901;27;20019;-85
2022/05/27 07:29:22;;;;;;;6.07;1.52;;;;;;;11.73;68.37;101065.00;5099709;27;20108;-88
2022/05/27 07:31:47;;;;;;;6.85;1.50;;;;;;;11.75;67.96;101052.72;5099598;27;20173;-85
2022/05/27 07:34:13;;;;;;;7.03;1.25;;;;;;;11.82;66.28;101060.47;5099236;27;20026;-86
2022/05/27 07:36:38;;;;;;;4.72;1.05;;;;;;;11.90;66.46;101064.72;5099470;27;20034;-87
2022/05/27 07:39:04;;;;;;;7.65;1.48;;;;;;;11.98;63.76;101065.47;5099420;27;20293;-85
2022/05/27 07:41:30;;;;;;;4.45;1.25;;;;;;;11.97;65.56;101062.00;5116325;27;20088;-86
2022/05/27 07:43:59;;;;;;;6.25;1.30;;;;;;;11.99;65.92;101044.50;5116237;27;20050;-85
2022/05/27 07:46:25;;;;;;;6.53;1.42;;;;;;;12.04;66.55;101059.28;5099657;27;20023;-85
2022/05/27 07:48:50;;;;;;;7.68;1.33;;;;;;;12.09;64.78;101057.47;5116125;27;20029;-85
2022/05/27 07:51:15;;;;;;;7.70;1.77;;;;;;;12.08;65.18;101045.25;5116122;27;20023;-86
2022/05/27 07:53:41;;;;;;;5.15;1.30;;;;;;;12.09;65.34;101054.84;5116160;27;20030;-85
2022/05/27 07:56:08;;;;;;;3.65;1.40;;;;;;;12.07;64.88;101056.63;5116024;27;20035;-85
2022/05/27 07:58:34;;;;;;;7.80;1.70;;;;;;;12.07;64.39;101064.50;5115712;27;20027;-85
2022/05/27 08:01:00;;;;;;;3.97;1.30;;;;;;;12.05;64.12;101054.00;5116025;27;20072;-85
2022/05/27 08:03:25;;;;;;;8.10;1.63;;;;;;;12.17;62.65;101052.94;5098807;27;20068;-84
2022/05/27 08:05:51;;;;;;;4.15;1.30;;;;;;;12.17;62.47;101060.81;5116001;27;20114;-86
2022/05/27 08:08:19;;;;;;;5.97;1.45;;;;;;;12.21;62.25;101069.50;5115788;27;20031;-88
2022/05/27 08:10:44;;;;;;;3.97;1.40;;;;;;;12.18;64.50;101044.22;5115841;27;20027;-85
2022/05/27 08:13:10;;;;;;;2.63;1.25;;;;;;;12.18;61.13;101052.06;5115661;27;20403;-86
2022/05/27 08:15:38;;;;;;;5.43;1.63;;;;;;;12.20;61.62;101071.22;5098842;27;20015;-85
2022/05/27 08:18:04;;;;;;;8.43;1.60;;;;;;;12.22;60.28;101045.03;5098516;27;20110;-86
2022/05/27 08:20:31;;;;;;;4.90;1.30;;;;;;;12.23;61.96;101060.72;5098625;27;20165;-86
2022/05/27 08:22:57;;;;;;;4.22;1.20;;;;;;;12.23;60.03;101060.72;5115357;27;20083;-85
2022/05/27 08:25:23;;;;;;;4.68;1.38;;;;;;;12.32;59.95;101049.19;5115614;27;20496;-86
2022/05/27 08:27:49;;;;;;;4.45;1.63;;;;;;;12.39;57.30;101052.59;5115325;27;20396;-85
2022/05/27 08:30:20;;;;;;;5.57;1.50;;;;;;;12.31;58.42;101050.97;5115438;27;20027;-86
2022/05/27 08:32:49;;;;;;;6.00;1.35;;;;;;;12.29;59.71;101051.88;5116046;27;20539;-85
2022/05/27 08:38:01;;;;;;;6.13;1.45;;;;;;;12.32;59.01;101039.63;5118545;27;20087;-84
2022/05/27 08:41:03;;;;;;;9.88;1.30;;;;;;;12.33;58.73;101059.66;5115062;27;20052;-85
2022/05/27 08:43:44;;;;;;;7.18;1.30;;;;;;;12.43;58.46;101049.00;5131814;27;20384;-85
2022/05/27 08:46:34;;;;;;;4.80;1.38;;;;;;;12.46;59.09;101046.31;5132439;27;20023;-87
2022/05/27 08:49:04;;;;;;;4.30;1.10;;;;;;;12.54;60.05;101049.66;5121565;27;20035;-85
2022/05/27 08:51:40;;;;;;;3.08;1.30;;;;;;;12.58;59.02;101040.84;5077999;28;20049;-85
2022/05/27 08:54:12;;;;;;;6.63;1.38;;;;;;;12.63;59.47;101054.75;5094685;28;20031;-85
2022/05/27 08:59:35;;;;;;;5.53;1.73;;;;;;;12.75;57.89;101042.28;5097377;28;20038;-85
2022/05/27 09:02:26;;;;;;;10.02;2.05;;;;;;;12.81;56.48;101066.63;5095220;28;20030;-85
2022/05/27 09:05:06;;;;;;;3.65;1.38;;;;;;;12.92;54.69;101058.53;5112738;28;20016;-85
2022/05/27 09:07:39;;;;;;;5.28;1.85;;;;;;;12.91;55.11;101045.47;5094523;28;20092;-86
2022/05/27 09:10:29;;;;;;;5.45;1.80;;;;;;;12.91;55.12;101046.34;5094405;28;20084;-85
2022/05/27 09:13:22;;;;;;;8.30;1.70;;;;;;;12.87;54.84;101055.19;5066826;28;20070;-88
2022/05/27 09:16:02;;;;;;;5.90;1.80;;;;;;;12.91;55.63;101061.19;5074209;28;20030;-86
2022/05/27 09:18:35;;;;;;;6.60;2.20;;;;;;;12.87;56.34;101051.66;5074379;28;20491;-86
2022/05/27 09:21:06;;;;;;;6.60;1.90;;;;;;;12.81;56.44;101079.72;5074103;28;20028;-86
2022/05/27 09:24:13;;;;;;;8.90;1.73;;;;;;;12.73;58.05;101101.75;5074589;28;20560;-85
2022/05/27 09:27:02;;;;;;;4.18;1.52;;;;;;;12.59;61.97;101121.22;5050842;28;20032;-86
2022/05/27 09:29:52;;;;;;;6.13;1.40;;;;;;;12.50;65.52;101137.09;5074406;28;20475;-87
2022/05/27 09:32:25;;;;;;;4.78;1.50;;;;;;;12.34;66.76;101120.78;5049531;28;20123;-89
2022/05/27 09:34:50;;;;;;;3.72;1.13;;;;;;;12.18;65.76;101105.31;5074364;28;20024;-85
2022/05/27 09:37:25;;;;;;;4.88;1.55;;;;;;;12.07;66.67;101091.53;5057386;28;20389;-85
2022/05/27 09:39:52;;;;;;;8.73;2.13;;;;;;;12.05;68.00;101097.66;5058099;28;20043;-85
2022/05/27 09:42:25;;;;;;;4.40;1.65;;;;;;;12.03;67.47;101091.63;5057347;28;20047;-89
2022/05/27 09:44:54;;;;;;;7.60;1.73;;;;;;;12.08;67.65;101088.03;5074005;28;20527;-86
2022/05/27 09:47:20;;;;;;;7.22;1.75;;;;;;;12.12;66.18;101078.34;5057485;28;20026;-86
2022/05/27 09:49:57;;;;;;;7.25;1.88;;;;;;;12.21;64.69;101078.19;5057036;28;20020;-88
2022/05/27 09:52:24;;;;;;;7.68;2.05;;;;;;;12.25;64.19;101092.97;5057557;28;20115;-89
2022/05/27 09:54:54;;;;;;;10.25;3.08;;;;;;;12.30;64.38;101083.28;5058143;28;20024;-85
2022/05/27 09:57:23;;;;;;;7.28;1.70;;;;;;;12.39;65.74;101086.63;5061544;28;20030;-86
2022/05/27 09:59:57;;;;;;;7.43;2.05;;;;;;;12.46;63.78;101083.91;5077931;28;20024;-85
2022/05/27 10:02:37;;;;;;;8.93;1.92;;;;;;;12.54;63.86;101064.53;5061281;28;20032;-86
2022/05/27 10:05:17;;;;;;;11.93;1.92;;;;;;;12.60;62.02;101061.81;5061095;28;20020;-86
2022/05/27 10:07:42;;;;;;;8.32;1.92;;;;;;;12.73;61.58;101050.19;5060743;28;20024;-85
2022/05/27 10:10:32;;;;;;;4.32;1.42;;;;;;;12.83;62.81;101082.34;5077542;28;20114;-87
2022/05/27 10:13:30;;;;;;;7.93;1.60;;;;;;;12.85;59.36;101089.25;5077545;28;20102;-85
2022/05/27 10:16:04;;;;;;;7.60;1.70;;;;;;;12.89;57.77;101104.94;5061830;28;20028;-84
2022/05/27 10:18:29;;;;;;;5.60;1.42;;;;;;;12.77;62.05;101124.41;5060709;28;20111;-86
2022/05/27 10:21:04;;;;;;;12.90;3.72;;;;;;;12.62;71.71;101152.59;5060442;28;20114;-85
2022/05/27 10:23:34;;;;;;;9.05;2.08;;;;;;;12.45;75.16;101128.47;5060485;28;20016;-85
2022/05/27 10:26:22;;;;;;;6.10;1.60;;;;;;;12.18;77.99;101130.63;5060929;28;20028;-86
2022/05/27 10:29:01;;;;;;;7.70;1.95;;;;;;;11.98;78.84;101123.09;5060582;28;20027;-86
2022/05/27 10:31:27;;;;;;;7.05;1.63;;;;;;;11.89;79.40;101116.22;5077223;28;20020;-87
2022/05/27 10:33:53;;;;;;;4.45;1.40;;;;;;;11.88;80.81;101111.00;5077199;28;20043;-89
2022/05/27 10:36:22;;;;;;;4.35;1.58;;;;;;;11.89;81.86;101108.34;5060572;28;20047;-87
2022/05/27 10:38:56;;;;;;;9.50;2.03;;;;;;;11.97;83.27;101110.88;5076986;28;20027;-86
2022/05/27 10:41:30;;;;;;;4.45;1.63;;;;;;;12.08;82.34;101115.94;5060146;28;20498;-87
2022/05/27 10:44:19;;;;;;;9.27;1.77;;;;;;;12.20;79.30;101100.03;5095387;28;20035;-87
2022/05/27 10:46:54;;;;;;;10.35;2.13;;;;;;;12.20;80.21;101096.56;5076829;28;20028;-88
2022/05/27 10:49:38;;;;;;;10.13;1.92;;;;;;;12.16;81.14;101091.38;5060382;28;20020;-87
2022/05/27 10:52:07;;;;;;;8.55;2.08;;;;;;;12.23;81.48;101097.38;5076735;28;20386;-86
2022/05/27 10:54:51;;;;;;;10.25;2.22;;;;;;;12.38;82.05;101093.66;5076840;28;20028;-86
2022/05/27 11:03:17;;;;;;;9.02;1.40;;;;;;;12.17;83.19;101129.78;5079514;28;20077;-84
2022/05/27 11:06:01;;;;;;;;;;;;;;;11.98;85.17;101128.31;5059921;28;20028;-86
2022/05/27 11:08:30;;;;;;;9.05;1.75;;;;;;;11.76;84.97;101119.88;5094071;28;20054;-86
2022/05/27 11:11:13;;;;;;;9.77;2.08;;;;;;;11.68;87.89;101114.75;5059704;28;20020;-85
2022/05/27 11:17:20;;;;;;;9.15;1.50;;;;;;;11.72;87.96;101105.13;5092018;28;20034;-85
2022/05/27 11:20:13;;;;;;;9.40;1.75;;;;;;;11.79;87.10;101112.00;5091083;28;20047;-86
2022/05/27 11:23:06;;;;;;;5.15;1.67;;;;;;;11.90;87.87;101099.63;5094399;28;20048;-84
2022/05/27 11:25:44;;;;;;;6.82;1.92;;;;;;;12.01;88.05;101096.84;5075882;28;20024;-86
2022/05/27 11:29:00;;;;;;;11.20;1.77;;;;;;;12.19;88.14;101080.00;5076046;28;20020;-84
2022/05/27 11:31:47;;;;;;;5.18;1.83;;;;;;;12.26;86.88;101088.63;5055041;28;20100;-85
2022/05/27 11:34:28;;;;;;;13.18;2.45;;;;;;;12.32;86.58;101094.63;5094275;28;20028;-87
2022/05/27 11:37:22;;;;;;;11.90;1.88;;;;;;;12.30;85.82;101092.91;5075810;28;20024;-86
2022/05/27 11:40:00;;;;;;;8.75;2.30;;;;;;;12.27;85.12;101095.56;5059293;28;20020;-87
2022/05/27 11:42:48;;;;;;;6.22;1.55;;;;;;;12.16;83.27;101100.97;5075722;28;20032;-86
2022/05/27 11:45:39;;;;;;;6.90;1.65;;;;;;;12.10;79.87;101111.56;5075692;28;20166;-85
2022/05/27 11:48:17;;;;;;;4.82;1.73;;;;;;;12.02;80.95;101129.16;5072282;28;20161;-85
2022/05/27 11:51:05;;;;;;;13.27;2.15;;;;;;;11.97;80.27;101121.34;5058757;28;20051;-85
2022/05/27 11:54:04;;;;;;;8.25;1.80;;;;;;;12.02;77.93;101116.06;5075593;28;20070;-84
2022/05/27 11:56:46;;;;;;;7.88;1.70;;;;;;;12.17;77.40;101108.84;5105168;22;20523;-83
2022/05/27 11:59:35;;;;;;;6.28;1.65;;;;;;;12.38;74.93;101108.47;5133789;27;20050;-83
2022/05/27 12:02:07;;;;;;;9.18;1.95;;;;;;;12.49;78.14;101115.28;5100159;27;20539;-84
2022/05/27 12:04:32;;;;;;;10.65;2.47;;;;;;;12.74;76.20;101119.22;5116624;27;20019;-82
2022/05/27 12:07:08;;;;;;;7.78;1.70;;;;;;;12.94;73.90;101117.06;5116816;27;20027;-82
2022/05/27 12:10:14;;;;;;;9.60;1.95;;;;;;;12.95;69.72;101107.44;5099481;27;20034;-82
2022/05/27 12:13:22;;;;;;;7.95;1.30;;;;;;;12.88;73.55;101106.69;5075606;27;20035;-83